createdAt,value
2023-05-30T00:01:45.864Z,100.00
2023-05-30T00:04:12.495Z,100.00
2023-05-30T00:06:39.123Z,100.00
2023-05-30T00:09:05.848Z,100.00
2023-05-30T00:11:32.630Z,100.00
2023-05-30T00:13:59.362Z,100.00
2023-05-30T00:16:27.239Z,100.00
2023-05-30T00:18:54.913Z,100.00
2023-05-30T00:21:21.545Z,100.00
2023-05-30T00:23:49.112Z,100.00
2023-05-30T00:26:16.339Z,100.00
2023-05-30T00:28:43.916Z,100.00
2023-05-30T00:31:10.702Z,100.00
2023-05-30T00:33:37.236Z,100.00
2023-05-30T00:36:04.023Z,100.00
2023-05-30T00:38:30.541Z,100.00
2023-05-30T00:40:57.275Z,100.00
2023-05-30T00:43:24.271Z,100.00
2023-05-30T00:45:54.301Z,100.00
2023-05-30T00:48:22.176Z,100.00
2023-05-30T00:50:49.883Z,100.00
2023-05-30T00:53:19.015Z,100.00
2023-05-30T00:55:45.677Z,100.00
2023-05-30T00:58:12.749Z,100.00
2023-05-30T01:00:40.860Z,100.00
2023-05-30T01:03:10.155Z,100.00
2023-05-30T01:05:37.768Z,100.00
2023-05-30T01:08:04.515Z,100.00
2023-05-30T01:10:32.330Z,100.00
2023-05-30T01:13:15.067Z,100.00
2023-05-30T01:15:48.883Z,100.00
2023-05-30T01:18:26.356Z,100.00
2023-05-30T01:21:00.725Z,100.00
2023-05-30T01:23:55.243Z,100.00
2023-05-30T01:26:34.663Z,100.00
2023-05-30T01:29:03.938Z,100.00
2023-05-30T01:31:33.108Z,100.00
2023-05-30T01:34:01.779Z,100.00
2023-05-30T01:36:30.301Z,100.00
2023-05-30T01:38:56.837Z,100.00
2023-05-30T01:41:35.961Z,100.00
2023-05-30T01:44:07.628Z,100.00
2023-05-30T01:46:37.149Z,100.00
2023-05-30T01:49:22.061Z,100.00
2023-05-30T01:52:09.935Z,100.00
2023-05-30T01:54:37.169Z,100.00
2023-05-30T01:57:17.660Z,100.00
2023-05-30T01:59:45.127Z,100.00
2023-05-30T02:02:12.529Z,100.00
2023-05-30T02:04:39.486Z,100.00
2023-05-30T02:07:06.344Z,100.00
2023-05-30T02:09:32.996Z,100.00
2023-05-30T02:11:59.704Z,100.00
2023-05-30T02:14:26.319Z,100.00
2023-05-30T02:16:55.576Z,100.00
2023-05-30T02:19:22.075Z,100.00
2023-05-30T02:21:48.595Z,100.00
2023-05-30T02:24:15.149Z,100.00
2023-05-30T02:26:41.742Z,100.00
2023-05-30T02:29:08.339Z,100.00
2023-05-30T02:31:35.005Z,100.00
2023-05-30T02:34:01.642Z,100.00
2023-05-30T02:36:28.343Z,100.00
2023-05-30T02:38:54.945Z,100.00
2023-05-30T02:41:22.602Z,100.00
2023-05-30T02:43:49.312Z,100.00
2023-05-30T02:46:15.904Z,100.00
2023-05-30T02:48:42.703Z,100.00
2023-05-30T02:51:09.244Z,100.00
2023-05-30T02:53:35.832Z,100.00
2023-05-30T02:56:02.368Z,100.00
2023-05-30T02:58:28.904Z,100.00
2023-05-30T03:00:55.654Z,100.00
2023-05-30T03:03:22.690Z,100.00
2023-05-30T03:05:50.495Z,100.00
2023-05-30T03:08:25.414Z,100.00
2023-05-30T03:10:52.951Z,100.00
2023-05-30T03:13:19.680Z,100.00
2023-05-30T03:15:46.358Z,100.00
2023-05-30T03:18:13.229Z,100.00
2023-05-30T03:20:40.208Z,100.00
2023-05-30T03:23:07.245Z,100.00
2023-05-30T03:25:33.940Z,100.00
2023-05-30T03:28:00.712Z,100.00
2023-05-30T03:30:28.743Z,100.00
2023-05-30T03:32:58.252Z,100.00
2023-05-30T03:35:24.946Z,100.00
2023-05-30T03:37:51.764Z,100.00
2023-05-30T03:40:18.417Z,100.00
2023-05-30T03:42:46.644Z,100.00
2023-05-30T03:45:13.393Z,100.00
2023-05-30T03:47:39.955Z,100.00
2023-05-30T03:50:06.889Z,100.00
2023-05-30T03:52:33.373Z,100.00
2023-05-30T03:55:00.064Z,100.00
2023-05-30T03:57:26.615Z,100.00
2023-05-30T03:59:53.263Z,100.00
2023-05-30T04:02:19.946Z,100.00
2023-05-30T04:04:46.687Z,100.00
2023-05-30T04:07:13.188Z,100.00
2023-05-30T04:09:39.710Z,100.00
2023-05-30T04:12:07.023Z,100.00
2023-05-30T04:14:33.682Z,100.00
2023-05-30T04:17:00.170Z,100.00
2023-05-30T04:19:26.930Z,100.00
2023-05-30T04:21:53.516Z,100.00
2023-05-30T04:24:20.115Z,100.00
2023-05-30T04:26:49.855Z,100.00
2023-05-30T04:29:18.034Z,100.00
2023-05-30T04:31:45.321Z,100.00
2023-05-30T04:34:12.317Z,100.00
2023-05-30T04:36:39.466Z,100.00
2023-05-30T04:39:06.002Z,100.00
2023-05-30T04:41:33.715Z,100.00
2023-05-30T04:44:01.251Z,100.00
2023-05-30T04:46:30.213Z,100.00
2023-05-30T04:49:02.988Z,100.00
2023-05-30T04:51:30.054Z,100.00
2023-05-30T04:53:56.649Z,100.00
2023-05-30T04:56:23.431Z,100.00
2023-05-30T04:58:53.072Z,100.00
2023-05-30T05:01:20.241Z,100.00
2023-05-30T05:03:47.167Z,100.00
2023-05-30T05:06:14.690Z,100.00
2023-05-30T05:08:41.433Z,100.00
2023-05-30T05:11:08.454Z,100.00
2023-05-30T05:13:35.856Z,100.00
2023-05-30T05:16:02.865Z,100.00
2023-05-30T05:18:29.452Z,100.00
2023-05-30T05:20:56.685Z,100.00
2023-05-30T05:23:24.464Z,100.00
2023-05-30T05:25:51.264Z,100.00
2023-05-30T05:28:18.398Z,100.00
2023-05-30T05:30:45.654Z,100.00
2023-05-30T05:33:14.308Z,100.00
2023-05-30T05:35:42.238Z,100.00
2023-05-30T05:38:09.046Z,100.00
2023-05-30T05:40:35.581Z,100.00
2023-05-30T05:43:02.444Z,100.00
2023-05-30T05:45:29.159Z,100.00
2023-05-30T05:47:56.140Z,100.00
2023-05-30T05:50:22.782Z,100.00
2023-05-30T05:52:49.304Z,100.00
2023-05-30T05:55:16.003Z,100.00
2023-05-30T05:57:42.717Z,100.00
2023-05-30T06:00:11.257Z,100.00
2023-05-30T06:02:38.090Z,100.00
2023-05-30T06:05:05.132Z,100.00
2023-05-30T06:07:31.835Z,100.00
2023-05-30T06:09:58.585Z,100.00
2023-05-30T06:12:25.147Z,100.00
2023-05-30T06:14:51.855Z,100.00
2023-05-30T06:17:18.450Z,100.00
2023-05-30T06:19:45.106Z,100.00
2023-05-30T06:22:11.711Z,100.00
2023-05-30T06:24:38.463Z,100.00
2023-05-30T06:27:05.239Z,100.00
2023-05-30T06:29:33.123Z,100.00
2023-05-30T06:32:11.070Z,100.00
2023-05-30T06:34:41.988Z,100.00
2023-05-30T06:37:08.513Z,100.00
2023-05-30T06:39:35.613Z,100.00
2023-05-30T06:42:03.661Z,100.00
2023-05-30T06:44:30.369Z,100.00
2023-05-30T06:46:58.025Z,100.00
2023-05-30T06:49:24.714Z,100.00
2023-05-30T06:51:51.226Z,100.00
2023-05-30T06:54:18.006Z,100.00
2023-05-30T06:56:44.544Z,100.00
2023-05-30T06:59:11.113Z,100.00
2023-05-30T07:01:37.765Z,100.00
2023-05-30T07:04:04.372Z,100.00
2023-05-30T07:06:31.177Z,100.00
2023-05-30T07:08:57.713Z,100.00
2023-05-30T07:11:24.458Z,100.00
2023-05-30T07:13:51.423Z,100.00
2023-05-30T07:16:18.112Z,100.00
2023-05-30T07:18:44.895Z,100.00
2023-05-30T07:21:11.724Z,100.00
2023-05-30T07:23:38.502Z,100.00
2023-05-30T07:26:05.299Z,100.00
2023-05-30T07:28:31.927Z,100.00
2023-05-30T07:30:58.759Z,100.00
2023-05-30T07:33:26.936Z,100.00
2023-05-30T07:35:54.711Z,100.00
2023-05-30T07:38:21.221Z,100.00
2023-05-30T07:40:47.729Z,100.00
2023-05-30T07:43:14.255Z,100.00
2023-05-30T07:45:42.227Z,100.00
2023-05-30T07:48:10.024Z,100.00
2023-05-30T07:50:36.546Z,100.00
2023-05-30T07:53:03.315Z,100.00
2023-05-30T07:55:30.012Z,100.00
2023-05-30T07:57:56.524Z,100.00
2023-05-30T08:00:24.492Z,100.00
2023-05-30T08:02:51.094Z,100.00
2023-05-30T08:05:17.897Z,100.00
2023-05-30T08:07:44.579Z,100.00
2023-05-30T08:10:13.617Z,100.00
2023-05-30T08:12:40.251Z,100.00
2023-05-30T08:15:08.868Z,100.00
2023-05-30T08:17:35.385Z,100.00
2023-05-30T08:20:02.112Z,100.00
2023-05-30T08:22:28.993Z,100.00
2023-05-30T08:24:56.478Z,100.00
2023-05-30T08:27:24.567Z,100.00
2023-05-30T08:29:51.172Z,100.00
2023-05-30T08:32:18.285Z,100.00
2023-05-30T08:34:45.650Z,100.00
2023-05-30T08:37:12.351Z,100.00
2023-05-30T08:39:39.085Z,100.00
2023-05-30T08:42:07.984Z,100.00
2023-05-30T08:44:34.700Z,100.00
2023-05-30T08:47:02.117Z,100.00
2023-05-30T08:49:34.477Z,100.00
2023-05-30T08:52:03.894Z,100.00
2023-05-30T08:54:45.354Z,100.00
2023-05-30T08:57:23.923Z,100.00
2023-05-30T08:59:52.570Z,100.00
2023-05-30T09:02:22.085Z,100.00
2023-05-30T09:04:51.661Z,100.00
2023-05-30T09:07:19.583Z,100.00
2023-05-30T09:09:47.104Z,100.00
2023-05-30T09:12:14.488Z,100.00
2023-05-30T09:14:41.139Z,100.00
2023-05-30T09:17:08.072Z,100.00
2023-05-30T09:19:38.080Z,100.00
2023-05-30T09:22:06.782Z,100.00
2023-05-30T09:24:57.913Z,100.00
2023-05-30T09:27:25.366Z,100.00
2023-05-30T09:29:52.068Z,100.00
2023-05-30T09:32:18.622Z,100.00
2023-05-30T09:34:57.135Z,100.00
2023-05-30T09:37:27.141Z,100.00
2023-05-30T09:40:12.790Z,100.00
2023-05-30T09:42:53.680Z,100.00
2023-05-30T09:45:25.347Z,100.00
2023-05-30T09:47:53.830Z,100.00
2023-05-30T09:50:22.369Z,100.00
2023-05-30T09:52:57.878Z,100.00
2023-05-30T09:55:26.213Z,100.00
2023-05-30T09:57:53.415Z,100.00
2023-05-30T10:00:24.852Z,100.00
2023-05-30T10:05:42.614Z,100.00
2023-05-30T10:08:11.630Z,100.00
2023-05-30T10:10:40.230Z,100.00
2023-05-30T10:13:06.980Z,100.00
2023-05-30T10:15:33.967Z,100.00
2023-05-30T10:18:07.793Z,100.00
2023-05-30T10:20:38.907Z,100.00
2023-05-30T10:23:08.332Z,100.00
2023-05-30T10:25:41.170Z,100.00
2023-05-30T10:28:11.207Z,100.00
2023-05-30T10:30:37.720Z,100.00
2023-05-30T10:33:07.552Z,90.75
2023-05-30T10:35:35.877Z,92.47
2023-05-30T10:38:05.618Z,91.88
2023-05-30T10:40:44.896Z,89.78
2023-05-30T10:43:17.361Z,90.12
2023-05-30T10:45:51.421Z,92.87
2023-05-30T10:48:50.137Z,95.85
2023-05-30T10:51:17.204Z,96.90
2023-05-30T10:53:48.302Z,100.00
2023-05-30T10:56:41.784Z,93.49
2023-05-30T10:59:20.636Z,98.77
2023-05-30T11:02:18.419Z,95.57
2023-05-30T11:04:50.980Z,94.34
2023-05-30T11:07:18.312Z,98.51
2023-05-30T11:10:06.688Z,93.53
2023-05-30T11:12:49.134Z,92.69
2023-05-30T11:15:17.350Z,99.42
2023-05-30T11:17:44.363Z,91.18
2023-05-30T11:20:18.275Z,100.00
2023-05-30T11:23:03.748Z,94.49
2023-05-30T11:25:32.430Z,91.80
2023-05-30T11:28:05.278Z,89.64
2023-05-30T11:30:33.887Z,90.38
2023-05-30T11:33:01.241Z,100.00
2023-05-30T11:35:28.880Z,97.22
2023-05-30T11:37:58.049Z,91.82
2023-05-30T11:40:25.414Z,100.00
2023-05-30T11:42:53.354Z,95.90
2023-05-30T11:45:30.955Z,99.63
2023-05-30T11:48:06.470Z,100.00
2023-05-30T11:50:43.558Z,100.00
2023-05-30T11:53:15.729Z,100.00
2023-05-30T11:55:49.798Z,100.00
2023-05-30T11:58:20.121Z,100.00
2023-05-30T12:00:48.714Z,100.00
2023-05-30T12:03:19.178Z,100.00
2023-05-30T12:05:47.932Z,100.00
2023-05-30T12:08:15.280Z,100.00
2023-05-30T12:10:41.883Z,100.00
2023-05-30T12:13:09.607Z,100.00
2023-05-30T12:15:39.291Z,100.00
2023-05-30T12:18:06.314Z,100.00
2023-05-30T12:20:33.136Z,100.00
2023-05-30T12:23:05.983Z,100.00
2023-05-30T12:25:32.569Z,100.00
2023-05-30T12:27:59.133Z,100.00
2023-05-30T12:30:25.783Z,100.00
2023-05-30T12:32:52.348Z,100.00
2023-05-30T12:35:26.107Z,100.00
2023-05-30T12:37:57.447Z,100.00
2023-05-30T12:40:27.264Z,100.00
2023-05-30T12:42:57.932Z,100.00
2023-05-30T12:45:24.794Z,100.00
2023-05-30T12:47:51.577Z,100.00
2023-05-30T12:50:18.277Z,100.00
2023-05-30T12:52:44.873Z,100.00
2023-05-30T12:55:13.800Z,100.00
2023-05-30T12:57:40.524Z,100.00
2023-05-30T13:00:10.513Z,100.00
2023-05-30T13:02:38.161Z,100.00
2023-05-30T13:05:05.266Z,100.00
2023-05-30T13:07:31.775Z,100.00
2023-05-30T13:09:58.310Z,100.00
2023-05-30T13:12:24.821Z,100.00
2023-05-30T13:14:51.382Z,100.00
2023-05-30T13:17:18.117Z,100.00
2023-05-30T13:19:44.917Z,100.00
2023-05-30T13:22:13.681Z,100.00
2023-05-30T13:24:40.499Z,100.00
2023-05-30T13:27:07.748Z,100.00
2023-05-30T13:29:35.058Z,100.00
2023-05-30T13:32:01.961Z,100.00
2023-05-30T13:34:31.794Z,100.00
2023-05-30T13:36:58.385Z,100.00
2023-05-30T13:39:25.050Z,100.00
2023-05-30T13:41:51.856Z,100.00
2023-05-30T13:44:18.577Z,100.00
2023-05-30T13:46:45.095Z,100.00
2023-05-30T13:49:12.084Z,100.00
2023-05-30T13:51:38.675Z,100.00
2023-05-30T13:54:06.495Z,100.00
2023-05-30T13:56:33.701Z,100.00
2023-05-30T13:59:00.786Z,100.00
2023-05-30T14:01:33.543Z,100.00
2023-05-30T14:04:00.955Z,100.00
2023-05-30T14:06:28.038Z,100.00
2023-05-30T14:08:54.678Z,100.00
2023-05-30T14:11:22.279Z,100.00
2023-05-30T14:13:49.760Z,100.00
2023-05-30T14:16:16.606Z,100.00
2023-05-30T14:18:46.495Z,100.00
2023-05-30T14:21:13.741Z,100.00
2023-05-30T14:23:40.850Z,100.00
2023-05-30T14:26:07.508Z,100.00
2023-05-30T14:28:34.209Z,100.00
2023-05-30T14:31:01.174Z,100.00
2023-05-30T14:33:28.094Z,100.00
2023-05-30T14:35:54.671Z,100.00
2023-05-30T14:38:21.298Z,100.00
2023-05-30T14:40:47.863Z,100.00
2023-05-30T14:43:14.933Z,100.00
2023-05-30T14:45:41.654Z,100.00
2023-05-30T14:48:09.724Z,100.00
2023-05-30T14:50:36.558Z,100.00
2023-05-30T14:53:03.847Z,100.00
2023-05-30T14:55:31.255Z,100.00
2023-05-30T14:57:58.152Z,100.00
2023-05-30T15:00:25.830Z,100.00
2023-05-30T15:02:53.067Z,100.00
2023-05-30T15:05:19.779Z,100.00
2023-05-30T15:07:46.330Z,100.00
2023-05-30T15:10:12.850Z,100.00
2023-05-30T15:12:40.251Z,100.00
2023-05-30T15:15:07.850Z,100.00
2023-05-30T15:17:34.463Z,100.00
2023-05-30T15:20:01.948Z,100.00
2023-05-30T15:22:28.492Z,100.00
2023-05-30T15:24:55.052Z,100.00
2023-05-30T15:27:21.621Z,100.00
2023-05-30T15:29:48.262Z,100.00
2023-05-30T15:32:14.954Z,100.00
2023-05-30T15:34:43.709Z,100.00
2023-05-30T15:37:10.370Z,100.00
2023-05-30T15:39:37.046Z,100.00
2023-05-30T15:42:03.741Z,100.00
2023-05-30T15:44:30.412Z,100.00
2023-05-30T15:46:58.709Z,100.00
2023-05-30T15:49:26.711Z,100.00
2023-05-30T15:51:55.519Z,100.00
2023-05-30T15:54:26.172Z,100.00
2023-05-30T15:56:52.910Z,100.00
2023-05-30T15:59:19.523Z,100.00
2023-05-30T16:01:46.099Z,100.00
2023-05-30T16:04:12.827Z,100.00
2023-05-30T16:06:39.368Z,100.00
2023-05-30T16:09:05.964Z,100.00
2023-05-30T16:11:32.956Z,100.00
2023-05-30T16:13:59.557Z,100.00
2023-05-30T16:16:26.342Z,100.00
2023-05-30T16:18:52.950Z,100.00
2023-05-30T16:21:19.709Z,100.00
2023-05-30T16:23:46.322Z,100.00
2023-05-30T16:26:12.869Z,100.00
2023-05-30T16:28:39.463Z,100.00
2023-05-30T16:31:06.112Z,100.00
2023-05-30T16:33:32.751Z,100.00
2023-05-30T16:36:05.544Z,100.00
2023-05-30T16:38:35.362Z,100.00
2023-05-30T16:41:11.662Z,100.00
2023-05-30T16:43:39.757Z,100.00
2023-05-30T16:46:06.445Z,100.00
2023-05-30T16:48:33.152Z,100.00
2023-05-30T16:50:59.879Z,100.00
2023-05-30T16:53:26.623Z,100.00
2023-05-30T16:55:57.435Z,100.00
2023-05-30T16:58:24.702Z,100.00
2023-05-30T17:00:51.647Z,100.00
2023-05-30T17:03:18.404Z,100.00
2023-05-30T17:05:45.016Z,100.00
2023-05-30T17:08:13.764Z,100.00
2023-05-30T17:10:41.836Z,100.00
2023-05-30T17:13:09.117Z,100.00
2023-05-30T17:15:36.597Z,100.00
2023-05-30T17:18:04.161Z,100.00
2023-05-30T17:20:31.156Z,100.00
2023-05-30T17:22:57.804Z,100.00
2023-05-30T17:25:26.901Z,100.00
2023-05-30T17:27:58.125Z,100.00
2023-05-30T17:30:25.323Z,100.00
2023-05-30T17:32:52.253Z,100.00
2023-05-30T17:35:19.313Z,100.00
2023-05-30T17:37:46.088Z,100.00
2023-05-30T17:40:12.794Z,100.00
2023-05-30T17:42:39.319Z,100.00
2023-05-30T17:45:07.034Z,100.00
2023-05-30T17:47:33.710Z,100.00
2023-05-30T17:50:00.427Z,100.00
2023-05-30T17:52:27.102Z,100.00
2023-05-30T17:54:53.639Z,100.00
2023-05-30T17:57:20.493Z,100.00
2023-05-30T17:59:47.030Z,100.00
2023-05-30T18:02:13.621Z,100.00
2023-05-30T18:04:41.528Z,100.00
2023-05-30T18:07:08.250Z,100.00
2023-05-30T18:09:34.746Z,100.00
2023-05-30T18:12:01.525Z,100.00
2023-05-30T18:14:28.117Z,100.00
2023-05-30T18:16:54.717Z,100.00
2023-05-30T18:19:21.879Z,100.00
2023-05-30T18:21:48.643Z,100.00
2023-05-30T18:24:15.631Z,100.00
2023-05-30T18:26:42.263Z,100.00
2023-05-30T18:29:09.289Z,100.00
2023-05-30T18:31:36.163Z,100.00
2023-05-30T18:34:02.701Z,100.00
2023-05-30T18:36:29.296Z,100.00
2023-05-30T18:39:00.359Z,100.00
2023-05-30T18:41:26.933Z,100.00
2023-05-30T18:43:54.828Z,100.00
2023-05-30T18:46:22.341Z,100.00
2023-05-30T18:48:49.419Z,100.00
2023-05-30T18:51:16.199Z,100.00
2023-05-30T18:53:43.286Z,100.00
2023-05-30T18:56:13.105Z,100.00
2023-05-30T18:58:42.245Z,100.00
2023-05-30T19:01:09.056Z,100.00
2023-05-30T19:03:35.873Z,100.00
2023-05-30T19:06:02.857Z,100.00
2023-05-30T19:08:29.604Z,100.00
2023-05-30T19:10:56.131Z,100.00
2023-05-30T19:13:22.667Z,100.00
2023-05-30T19:15:50.656Z,100.00
2023-05-30T19:18:17.582Z,100.00
2023-05-30T19:20:44.146Z,100.00
2023-05-30T19:23:11.345Z,100.00
2023-05-30T19:25:37.934Z,100.00
2023-05-30T19:28:06.204Z,100.00
2023-05-30T19:30:34.404Z,100.00
2023-05-30T19:33:02.216Z,100.00
2023-05-30T19:35:29.291Z,100.00
2023-05-30T19:37:58.040Z,100.00
2023-05-30T19:40:24.660Z,100.00
2023-05-30T19:42:51.346Z,100.00
2023-05-30T19:45:17.902Z,100.00
2023-05-30T19:47:44.550Z,100.00
2023-05-30T19:50:11.345Z,100.00
2023-05-30T19:52:37.890Z,100.00
2023-05-30T19:55:05.005Z,100.00
2023-05-30T19:57:31.655Z,100.00
2023-05-30T19:59:58.137Z,100.00
2023-05-30T20:02:24.636Z,100.00
2023-05-30T20:04:51.197Z,100.00
2023-05-30T20:07:17.719Z,100.00
2023-05-30T20:09:44.744Z,100.00
2023-05-30T20:12:11.296Z,100.00
2023-05-30T20:14:38.647Z,100.00
2023-05-30T20:17:05.689Z,100.00
2023-05-30T20:19:32.229Z,100.00
2023-05-30T20:21:58.827Z,100.00
2023-05-30T20:24:25.468Z,100.00
2023-05-30T20:26:52.100Z,100.00
2023-05-30T20:29:18.817Z,100.00
2023-05-30T20:31:45.666Z,100.00
2023-05-30T20:34:13.440Z,100.00
2023-05-30T20:36:40.008Z,100.00
2023-05-30T20:39:06.884Z,100.00
2023-05-30T20:41:33.504Z,100.00
2023-05-30T20:44:00.266Z,100.00
2023-05-30T20:46:26.991Z,100.00
2023-05-30T20:48:53.852Z,100.00
2023-05-30T20:51:20.507Z,100.00
2023-05-30T20:53:47.101Z,100.00
2023-05-30T20:56:13.761Z,100.00
2023-05-30T20:58:40.434Z,100.00
2023-05-30T21:01:07.006Z,100.00
2023-05-30T21:03:33.579Z,100.00
2023-05-30T21:06:02.288Z,100.00
2023-05-30T21:08:28.902Z,100.00
2023-05-30T21:10:56.271Z,100.00
2023-05-30T21:13:22.853Z,100.00
2023-05-30T21:15:49.365Z,100.00
2023-05-30T21:18:16.022Z,100.00
2023-05-30T21:20:42.721Z,100.00
2023-05-30T21:23:09.319Z,100.00
2023-05-30T21:25:35.850Z,100.00
2023-05-30T21:28:02.565Z,100.00
2023-05-30T21:30:29.122Z,100.00
2023-05-30T21:32:56.258Z,100.00
2023-05-30T21:35:22.928Z,100.00
2023-05-30T21:37:49.623Z,100.00
2023-05-30T21:40:16.256Z,100.00
2023-05-30T21:42:42.773Z,100.00
2023-05-30T21:45:10.030Z,100.00
2023-05-30T21:47:36.821Z,100.00
2023-05-30T21:50:03.635Z,100.00
2023-05-30T21:52:30.190Z,100.00
2023-05-30T21:54:56.894Z,100.00
2023-05-30T21:57:24.688Z,100.00
2023-05-30T21:59:51.375Z,100.00
2023-05-30T22:02:17.919Z,100.00
2023-05-30T22:04:44.509Z,100.00
2023-05-30T22:07:11.159Z,100.00
2023-05-30T22:09:37.818Z,100.00
2023-05-30T22:12:06.872Z,100.00
2023-05-30T22:14:33.677Z,100.00
2023-05-30T22:17:00.218Z,100.00
2023-05-30T22:19:26.710Z,100.00
2023-05-30T22:22:02.889Z,100.00
2023-05-30T22:24:30.744Z,100.00
2023-05-30T22:26:57.299Z,100.00
2023-05-30T22:29:23.891Z,100.00
2023-05-30T22:31:50.596Z,100.00
2023-05-30T22:34:17.290Z,100.00
2023-05-30T22:36:45.762Z,100.00
2023-05-30T22:39:14.019Z,100.00
2023-05-30T22:41:40.525Z,100.00
2023-05-30T22:44:07.240Z,100.00
2023-05-30T22:46:33.862Z,100.00
2023-05-30T22:49:00.493Z,100.00
2023-05-30T22:51:27.056Z,100.00
2023-05-30T22:53:54.310Z,100.00
2023-05-30T22:56:23.290Z,100.00
2023-05-30T22:58:51.154Z,100.00
2023-05-30T23:01:17.934Z,100.00
2023-05-30T23:03:44.782Z,100.00
2023-05-30T23:06:11.564Z,100.00
2023-05-30T23:08:38.262Z,100.00
2023-05-30T23:11:04.837Z,100.00
2023-05-30T23:13:31.362Z,100.00
2023-05-30T23:15:57.896Z,100.00
2023-05-30T23:18:24.663Z,100.00
2023-05-30T23:20:51.610Z,100.00
2023-05-30T23:23:18.263Z,100.00
2023-05-30T23:25:44.856Z,100.00
2023-05-30T23:28:11.652Z,100.00
2023-05-30T23:30:39.496Z,100.00
2023-05-30T23:33:06.120Z,100.00
2023-05-30T23:35:32.737Z,100.00
2023-05-30T23:37:59.515Z,100.00
2023-05-30T23:40:26.455Z,100.00
2023-05-30T23:42:53.390Z,100.00
2023-05-30T23:45:20.181Z,100.00
2023-05-30T23:47:46.894Z,100.00
2023-05-30T23:50:13.560Z,100.00
2023-05-30T23:52:40.091Z,100.00
2023-05-30T23:55:07.451Z,100.00
2023-05-30T23:57:34.348Z,100.00
